createdAt,value
2018-09-06T00:00:18.567Z,17.93
2018-09-06T00:01:18.763Z,17.99
2018-09-06T00:02:18.952Z,17.92
2018-09-06T00:03:19.149Z,17.93
2018-09-06T00:04:19.348Z,18.07
2018-09-06T00:05:19.538Z,18.12
2018-09-06T00:06:19.732Z,18.18
2018-09-06T00:07:19.922Z,18.20
2018-09-06T00:08:20.112Z,18.21
2018-09-06T00:09:20.315Z,18.20
2018-09-06T00:10:20.501Z,18.23
2018-09-06T00:11:20.713Z,18.32
2018-09-06T00:12:20.892Z,18.35
2018-09-06T00:13:21.080Z,18.44
2018-09-06T00:14:21.273Z,18.44
2018-09-06T00:15:21.467Z,18.45
2018-09-06T00:16:21.664Z,18.37
2018-09-06T00:17:21.853Z,18.50
2018-09-06T00:18:22.041Z,18.26
2018-09-06T00:19:22.233Z,18.27
2018-09-06T00:20:22.435Z,18.27
2018-09-06T00:21:22.630Z,18.26
2018-09-06T00:22:22.819Z,18.32
2018-09-06T00:23:23.009Z,18.23
2018-09-06T00:24:23.212Z,18.41
2018-09-06T00:25:23.403Z,18.17
2018-09-06T00:26:23.601Z,18.08
2018-09-06T00:27:23.787Z,18.12
2018-09-06T00:28:23.981Z,18.12
2018-09-06T00:29:24.177Z,18.14
2018-09-06T00:30:24.372Z,18.08
2018-09-06T00:31:24.561Z,17.97
2018-09-06T00:32:24.751Z,17.96
2018-09-06T00:33:24.946Z,18.02
2018-09-06T00:34:25.138Z,17.89
2018-09-06T00:35:25.337Z,17.71
2018-09-06T00:36:25.524Z,17.77
2018-09-06T00:37:25.716Z,17.74
2018-09-06T00:38:25.911Z,17.79
2018-09-06T00:39:26.101Z,17.70
2018-09-06T00:40:26.296Z,17.68
2018-09-06T00:41:26.490Z,17.70
2018-09-06T00:42:26.678Z,17.74
2018-09-06T00:43:26.878Z,17.71
2018-09-06T00:44:27.069Z,17.79
2018-09-06T00:45:27.258Z,17.74
2018-09-06T00:46:27.448Z,17.79
2018-09-06T00:47:27.639Z,17.81
2018-09-06T00:48:27.827Z,17.81
2018-09-06T00:49:28.020Z,17.70
2018-09-06T00:50:28.212Z,17.84
2018-09-06T00:51:28.408Z,17.93
2018-09-06T00:52:28.599Z,17.72
2018-09-06T00:53:28.786Z,17.68
2018-09-06T00:54:28.975Z,17.74
2018-09-06T00:55:29.167Z,17.86
2018-09-06T00:56:29.353Z,17.68
2018-09-06T00:57:29.549Z,17.66
2018-09-06T00:58:29.745Z,17.54
2018-09-06T00:59:29.937Z,17.55
2018-09-06T01:00:30.127Z,17.63
2018-09-06T01:01:30.321Z,17.58
2018-09-06T01:02:30.510Z,17.62
2018-09-06T01:03:30.747Z,17.66
2018-09-06T01:04:30.892Z,17.58
2018-09-06T01:05:31.084Z,17.63
2018-09-06T01:06:31.290Z,17.55
2018-09-06T01:07:31.463Z,17.59
2018-09-06T01:08:31.644Z,17.52
2018-09-06T01:09:31.836Z,17.44
2018-09-06T01:10:32.026Z,17.51
2018-09-06T01:11:32.218Z,17.31
2018-09-06T01:12:32.409Z,17.25
2018-09-06T01:13:32.597Z,17.34
2018-09-06T01:14:32.792Z,17.25
2018-09-06T01:15:32.980Z,17.30
2018-09-06T01:16:33.175Z,17.26
2018-09-06T01:17:33.364Z,17.22
2018-09-06T01:18:33.554Z,17.28
2018-09-06T01:19:33.750Z,17.30
2018-09-06T01:20:33.938Z,17.11
2018-09-06T01:21:34.132Z,17.11
2018-09-06T01:22:34.321Z,16.96
2018-09-06T01:23:34.513Z,16.83
2018-09-06T01:24:34.711Z,16.78
2018-09-06T01:25:34.906Z,16.79
2018-09-06T01:26:35.103Z,16.81
2018-09-06T01:27:35.291Z,16.83
2018-09-06T01:28:35.480Z,16.82
2018-09-06T01:29:35.671Z,16.96
2018-09-06T01:30:35.863Z,16.97
2018-09-06T01:31:36.064Z,17.03
2018-09-06T01:32:36.255Z,17.07
2018-09-06T01:33:36.454Z,16.93
2018-09-06T01:34:36.645Z,16.73
2018-09-06T01:35:36.833Z,16.67
2018-09-06T01:36:37.025Z,16.56
2018-09-06T01:37:37.223Z,16.48
2018-09-06T01:38:37.553Z,16.56
2018-09-06T01:39:37.608Z,16.42
2018-09-06T01:40:37.797Z,16.34
2018-09-06T01:41:37.992Z,16.28
2018-09-06T01:42:38.180Z,16.21
2018-09-06T01:43:38.383Z,16.17
2018-09-06T01:44:38.564Z,16.12
2018-09-06T01:45:38.753Z,16.09
2018-09-06T01:46:38.946Z,16.11
2018-09-06T01:47:39.134Z,16.23
2018-09-06T01:48:39.322Z,16.23
2018-09-06T01:49:39.510Z,16.30
2018-09-06T01:50:39.701Z,16.31
2018-09-06T01:51:39.899Z,16.43
2018-09-06T01:52:40.093Z,16.48
2018-09-06T01:53:40.289Z,16.60
2018-09-06T01:54:40.489Z,16.64
2018-09-06T01:55:40.682Z,16.73
2018-09-06T01:56:40.867Z,16.73
2018-09-06T01:57:41.057Z,16.76
2018-09-06T01:58:41.246Z,16.61
2018-09-06T01:59:41.443Z,16.53
2018-09-06T02:00:41.629Z,16.58
2018-09-06T02:01:41.826Z,16.57
2018-09-06T02:02:42.012Z,16.56
2018-09-06T02:03:42.203Z,16.52
2018-09-06T02:04:42.395Z,16.50
2018-09-06T02:05:42.594Z,16.49
2018-09-06T02:06:42.782Z,16.57
2018-09-06T02:07:42.974Z,16.39
2018-09-06T02:08:43.165Z,16.34
2018-09-06T02:09:43.355Z,16.28
2018-09-06T02:10:43.548Z,16.24
2018-09-06T02:11:43.738Z,16.20
2018-09-06T02:12:43.930Z,16.15
2018-09-06T02:13:44.119Z,16.05
2018-09-06T02:14:44.309Z,16.07
2018-09-06T02:15:44.503Z,16.09
2018-09-06T02:16:44.697Z,16.08
2018-09-06T02:17:44.887Z,16.12
2018-09-06T02:18:45.077Z,16.17
2018-09-06T02:19:45.265Z,16.07
2018-09-06T02:20:45.453Z,16.20
2018-09-06T02:21:45.648Z,16.17
2018-09-06T02:22:45.838Z,16.07
2018-09-06T02:23:46.028Z,15.97
2018-09-06T02:24:46.233Z,16.07
2018-09-06T02:25:46.420Z,16.07
2018-09-06T02:26:46.606Z,16.14
2018-09-06T02:27:46.799Z,16.12
2018-09-06T02:28:46.987Z,16.09
2018-09-06T02:29:47.180Z,16.08
2018-09-06T02:30:47.366Z,15.94
2018-09-06T02:31:47.554Z,16.01
2018-09-06T02:32:47.741Z,16.05
2018-09-06T02:33:47.936Z,16.08
2018-09-06T02:34:48.125Z,16.04
2018-09-06T02:35:48.314Z,16.11
2018-09-06T02:36:48.508Z,16.07
2018-09-06T02:37:48.697Z,16.01
2018-09-06T02:38:48.891Z,15.90
2018-09-06T02:39:49.084Z,15.83
2018-09-06T02:40:49.270Z,15.84
2018-09-06T02:41:49.468Z,15.76
2018-09-06T02:42:49.654Z,15.67
2018-09-06T02:43:49.845Z,15.65
2018-09-06T02:44:50.035Z,15.64
2018-09-06T02:45:50.228Z,15.51
2018-09-06T02:46:50.421Z,15.49
2018-09-06T02:47:50.610Z,15.47
2018-09-06T02:48:50.796Z,15.50
2018-09-06T02:49:50.995Z,15.36
2018-09-06T02:50:51.179Z,15.28
2018-09-06T02:51:51.367Z,15.20
2018-09-06T02:52:51.557Z,15.03
2018-09-06T02:53:51.788Z,15.06
2018-09-06T02:54:51.938Z,14.99
2018-09-06T02:55:52.130Z,14.88
2018-09-06T02:56:52.318Z,14.98
2018-09-06T02:57:52.510Z,14.81
2018-09-06T02:58:52.706Z,14.83
2018-09-06T02:59:52.897Z,14.78
2018-09-06T03:00:53.085Z,14.78
2018-09-06T03:01:53.280Z,14.80
2018-09-06T03:02:53.470Z,14.70
2018-09-06T03:03:53.664Z,14.77
2018-09-06T03:04:53.860Z,14.75
2018-09-06T03:05:54.052Z,14.72
2018-09-06T03:06:54.247Z,14.70
2018-09-06T03:07:54.490Z,14.61
2018-09-06T03:08:54.638Z,14.75
2018-09-06T03:09:54.829Z,14.60
2018-09-06T03:10:55.022Z,14.62
2018-09-06T03:11:55.210Z,14.68
2018-09-06T03:12:55.412Z,14.65
2018-09-06T03:13:55.599Z,14.70
2018-09-06T03:14:55.804Z,14.70
2018-09-06T03:15:55.996Z,14.58
2018-09-06T03:16:56.188Z,14.64
2018-09-06T03:17:56.381Z,14.62
2018-09-06T03:18:56.570Z,14.69
2018-09-06T03:19:56.768Z,14.73
2018-09-06T03:20:56.957Z,14.80
2018-09-06T03:21:57.147Z,14.80
2018-09-06T03:22:57.337Z,14.81
2018-09-06T03:23:57.539Z,14.83
2018-09-06T03:24:57.718Z,14.84
2018-09-06T03:25:57.911Z,14.77
2018-09-06T03:26:58.095Z,14.78
2018-09-06T03:27:58.287Z,14.88
2018-09-06T03:28:58.476Z,14.94
2018-09-06T03:29:58.677Z,14.94
2018-09-06T03:30:58.863Z,14.94
2018-09-06T03:31:59.064Z,14.89
2018-09-06T03:32:59.255Z,15.09
2018-09-06T03:33:59.427Z,15.02
2018-09-06T03:34:59.616Z,14.96
2018-09-06T03:35:59.874Z,14.99
2018-09-06T03:36:59.993Z,14.99
2018-09-06T03:38:00.180Z,15.02
2018-09-06T03:39:00.378Z,14.96
2018-09-06T03:40:00.568Z,14.98
2018-09-06T03:41:00.760Z,14.88
2018-09-06T03:42:00.951Z,14.88
2018-09-06T03:43:01.171Z,14.96
2018-09-06T03:44:01.330Z,14.94
2018-09-06T03:45:01.519Z,14.92
2018-09-06T03:46:01.712Z,14.91
2018-09-06T03:47:01.898Z,14.81
2018-09-06T03:48:02.095Z,14.84
2018-09-06T03:49:02.283Z,14.78
2018-09-06T03:50:02.480Z,14.78
2018-09-06T03:51:02.662Z,14.72
2018-09-06T03:52:02.851Z,14.61
2018-09-06T03:53:03.036Z,14.69
2018-09-06T03:54:03.235Z,14.58
2018-09-06T03:55:03.423Z,14.47
2018-09-06T03:56:03.615Z,14.42
2018-09-06T03:57:03.812Z,14.37
2018-09-06T03:58:03.994Z,14.33
2018-09-06T03:59:04.187Z,14.39
2018-09-06T04:00:04.380Z,14.36
2018-09-06T04:01:04.571Z,14.28
2018-09-06T04:02:04.760Z,14.36
2018-09-06T04:03:04.950Z,14.35
2018-09-06T04:04:05.143Z,14.40
2018-09-06T04:05:05.334Z,14.36
2018-09-06T04:06:05.519Z,14.40
2018-09-06T04:07:05.722Z,14.39
2018-09-06T04:08:05.909Z,14.52
2018-09-06T04:09:06.099Z,14.55
2018-09-06T04:10:06.293Z,14.57
2018-09-06T04:11:06.480Z,14.58
2018-09-06T04:12:06.664Z,14.50
2018-09-06T04:13:06.852Z,14.58
2018-09-06T04:14:07.049Z,14.42
2018-09-06T04:15:07.835Z,14.57
2018-09-06T04:16:07.433Z,14.57
2018-09-06T04:17:07.618Z,14.61
2018-09-06T04:18:07.811Z,14.51
2018-09-06T04:19:07.994Z,14.60
2018-09-06T04:20:08.199Z,14.57
2018-09-06T04:21:08.382Z,14.52
2018-09-06T04:22:08.566Z,14.55
2018-09-06T04:23:08.758Z,14.54
2018-09-06T04:24:09.006Z,14.58
2018-09-06T04:25:09.137Z,14.62
2018-09-06T04:26:09.331Z,14.68
2018-09-06T04:27:09.523Z,14.69
2018-09-06T04:28:09.711Z,14.68
2018-09-06T04:29:09.899Z,14.57
2018-09-06T04:30:10.087Z,14.52
2018-09-06T04:31:10.295Z,14.51
2018-09-06T04:32:10.480Z,14.60
2018-09-06T04:33:10.672Z,14.61
2018-09-06T04:34:10.860Z,14.51
2018-09-06T04:35:11.056Z,14.51
2018-09-06T04:36:11.265Z,14.57
2018-09-06T04:37:11.437Z,14.54
2018-09-06T04:38:11.631Z,14.65
2018-09-06T04:39:11.822Z,14.68
2018-09-06T04:40:12.021Z,14.58
2018-09-06T04:41:12.208Z,14.61
2018-09-06T04:42:12.400Z,14.60
2018-09-06T04:43:12.594Z,14.68
2018-09-06T04:44:12.779Z,14.61
2018-09-06T04:45:12.968Z,14.72
2018-09-06T04:46:13.166Z,14.62
2018-09-06T04:47:13.364Z,14.51
2018-09-06T04:48:13.553Z,14.61
2018-09-06T04:49:13.740Z,14.50
2018-09-06T04:50:13.929Z,14.58
2018-09-06T04:51:14.125Z,14.54
2018-09-06T04:52:14.313Z,14.57
2018-09-06T04:53:14.504Z,14.52
2018-09-06T04:54:14.700Z,14.50
2018-09-06T04:55:14.931Z,14.55
2018-09-06T04:56:15.076Z,14.68
2018-09-06T04:57:15.264Z,14.65
2018-09-06T04:58:15.452Z,14.70
2018-09-06T04:59:15.645Z,14.75
2018-09-06T05:00:15.841Z,14.78
2018-09-06T05:01:16.038Z,14.80
2018-09-06T05:02:16.224Z,14.69
2018-09-06T05:03:16.419Z,14.84
2018-09-06T05:04:16.677Z,14.81
2018-09-06T05:05:16.806Z,14.83
2018-09-06T05:06:16.999Z,14.94
2018-09-06T05:07:17.188Z,14.94
2018-09-06T05:08:17.377Z,15.02
2018-09-06T05:09:17.573Z,14.98
2018-09-06T05:10:17.764Z,15.06
2018-09-06T05:11:17.953Z,15.16
2018-09-06T05:12:18.147Z,15.02
2018-09-06T05:13:18.340Z,15.11
2018-09-06T05:14:18.532Z,15.14
2018-09-06T05:15:18.741Z,15.21
2018-09-06T05:16:18.923Z,15.27
2018-09-06T05:17:19.112Z,15.27
2018-09-06T05:18:19.312Z,15.25
2018-09-06T05:19:19.506Z,15.43
2018-09-06T05:20:19.694Z,15.43
2018-09-06T05:21:19.890Z,15.49
2018-09-06T05:22:20.072Z,15.35
2018-09-06T05:23:20.258Z,15.10
2018-09-06T05:24:20.450Z,15.03
2018-09-06T05:25:20.637Z,15.10
2018-09-06T05:26:20.828Z,15.16
2018-09-06T05:27:21.018Z,15.23
2018-09-06T05:28:21.212Z,15.19
2018-09-06T05:29:21.406Z,15.27
2018-09-06T05:30:21.592Z,15.27
2018-09-06T05:31:21.785Z,15.39
2018-09-06T05:32:21.976Z,15.46
2018-09-06T05:33:22.175Z,15.38
2018-09-06T05:34:22.359Z,15.51
2018-09-06T05:35:22.550Z,15.51
2018-09-06T05:36:22.756Z,15.64
2018-09-06T05:37:22.950Z,15.78
2018-09-06T05:38:23.137Z,15.83
2018-09-06T05:39:23.329Z,15.90
2018-09-06T05:40:23.519Z,15.96
2018-09-06T05:41:23.717Z,16.15
2018-09-06T05:42:23.897Z,16.20
2018-09-06T05:43:24.096Z,16.20
2018-09-06T05:44:24.272Z,16.20
2018-09-06T05:45:24.487Z,16.15
2018-09-06T05:46:24.652Z,16.34
2018-09-06T05:47:24.925Z,16.43
2018-09-06T05:48:25.053Z,16.64
2018-09-06T05:49:25.261Z,17.03
2018-09-06T05:50:25.431Z,17.31
2018-09-06T05:51:25.629Z,17.56
2018-09-06T05:52:25.810Z,18.02
2018-09-06T05:53:26.045Z,18.37
2018-09-06T05:54:26.201Z,18.63
2018-09-06T05:55:26.397Z,18.80
2018-09-06T05:56:26.585Z,18.92
2018-09-06T05:57:26.775Z,19.32
2018-09-06T05:58:26.976Z,19.59
2018-09-06T05:59:27.229Z,19.91
2018-09-06T06:00:27.353Z,19.99
2018-09-06T06:01:27.543Z,20.26
2018-09-06T06:02:27.734Z,20.77
2018-09-06T06:03:27.936Z,21.06
2018-09-06T06:04:28.133Z,21.12
2018-09-06T06:05:28.314Z,21.09
2018-09-06T06:06:28.518Z,21.17
2018-09-06T06:07:28.709Z,21.13
2018-09-06T06:08:28.901Z,21.17
2018-09-06T06:09:29.113Z,21.19
2018-09-06T06:10:29.305Z,21.35
2018-09-06T06:11:29.500Z,21.37
2018-09-06T06:12:29.699Z,21.37
2018-09-06T06:13:29.893Z,21.50
2018-09-06T06:14:30.093Z,21.86
2018-09-06T06:15:30.280Z,21.91
2018-09-06T06:16:30.491Z,22.06
2018-09-06T06:17:30.688Z,22.05
2018-09-06T06:18:30.895Z,22.15
2018-09-06T06:19:31.095Z,22.24
2018-09-06T06:20:31.284Z,22.20
2018-09-06T06:21:31.480Z,22.35
2018-09-06T06:22:31.687Z,22.47
2018-09-06T06:23:31.869Z,22.57
2018-09-06T06:24:32.076Z,22.61
2018-09-06T06:25:32.293Z,22.97
2018-09-06T06:26:32.506Z,23.04
2018-09-06T06:27:32.715Z,23.01
2018-09-06T06:28:32.913Z,22.90
2018-09-06T06:29:33.114Z,22.73
2018-09-06T06:30:33.311Z,22.15
2018-09-06T06:31:33.507Z,21.91
2018-09-06T06:32:33.706Z,22.05
2018-09-06T06:33:33.908Z,22.42
2018-09-06T06:34:34.098Z,22.94
2018-09-06T06:35:34.298Z,22.51
2018-09-06T06:36:34.521Z,23.10
2018-09-06T06:37:34.688Z,23.09
2018-09-06T06:38:34.886Z,23.07
2018-09-06T06:39:35.083Z,23.02
2018-09-06T06:40:35.276Z,23.50
2018-09-06T06:41:35.475Z,23.75
2018-09-06T06:42:35.679Z,24.18
2018-09-06T06:43:35.891Z,24.25
2018-09-06T06:44:36.076Z,24.28
2018-09-06T06:45:36.271Z,24.40
2018-09-06T06:46:36.466Z,24.27
2018-09-06T06:47:36.668Z,23.66
2018-09-06T06:48:36.858Z,22.79
2018-09-06T06:49:37.060Z,22.60
2018-09-06T06:50:37.259Z,22.51
2018-09-06T06:51:37.451Z,22.73
2018-09-06T06:52:37.661Z,22.61
2018-09-06T06:53:37.856Z,22.18
2018-09-06T06:54:38.058Z,22.21
2018-09-06T06:55:38.255Z,21.91
2018-09-06T06:56:38.453Z,21.34
2018-09-06T06:57:38.652Z,20.92
2018-09-06T06:58:38.872Z,21.12
2018-09-06T06:59:39.042Z,21.01
2018-09-06T07:00:39.244Z,21.07
2018-09-06T07:01:39.445Z,21.24
2018-09-06T07:02:39.637Z,21.22
2018-09-06T07:03:39.839Z,21.09
2018-09-06T07:04:40.046Z,21.04
2018-09-06T07:05:40.225Z,21.71
2018-09-06T07:06:40.436Z,22.82
2018-09-06T07:07:40.621Z,23.07
2018-09-06T07:08:40.819Z,23.16
2018-09-06T07:09:41.018Z,23.00
2018-09-06T07:10:41.219Z,23.22
2018-09-06T07:11:41.409Z,23.61
2018-09-06T07:12:41.605Z,24.13
2018-09-06T07:13:41.805Z,24.21
2018-09-06T07:14:42.008Z,24.49
2018-09-06T07:15:42.204Z,24.96
2018-09-06T07:16:42.396Z,25.27
2018-09-06T07:17:42.599Z,25.57
2018-09-06T07:18:42.822Z,26.43
2018-09-06T07:19:42.988Z,27.27
2018-09-06T07:20:43.196Z,27.41
2018-09-06T07:21:43.397Z,27.46
2018-09-06T07:22:43.596Z,27.19
2018-09-06T07:23:43.791Z,27.10
2018-09-06T07:24:44.010Z,27.46
2018-09-06T07:25:44.211Z,28.22
2018-09-06T07:26:44.417Z,28.56
2018-09-06T07:27:44.623Z,28.93
2018-09-06T07:28:44.814Z,28.54
2018-09-06T07:29:45.020Z,28.09
2018-09-06T07:30:45.225Z,28.06
2018-09-06T07:31:45.424Z,28.03
2018-09-06T07:32:45.634Z,28.46
2018-09-06T07:33:45.833Z,29.18
2018-09-06T07:34:46.032Z,28.93
2018-09-06T07:35:46.241Z,28.22
2018-09-06T07:36:46.442Z,27.92
2018-09-06T07:37:46.658Z,27.70
2018-09-06T07:38:46.856Z,27.92
2018-09-06T07:39:47.052Z,27.17
2018-09-06T07:40:47.266Z,27.12
2018-09-06T07:41:47.479Z,27.99
2018-09-06T07:42:47.671Z,28.66
2018-09-06T07:43:47.870Z,28.29
2018-09-06T07:44:48.075Z,28.43
2018-09-06T07:45:48.279Z,28.67
2018-09-06T07:46:48.520Z,28.41
2018-09-06T07:47:48.689Z,28.64
2018-09-06T07:48:48.893Z,28.89
2018-09-06T07:49:49.095Z,28.80
2018-09-06T07:50:49.293Z,28.77
2018-09-06T07:51:49.499Z,28.67
2018-09-06T07:52:49.710Z,28.70
2018-09-06T07:53:49.904Z,29.02
2018-09-06T07:54:50.110Z,28.49
2018-09-06T07:55:50.309Z,28.70
2018-09-06T07:56:50.520Z,28.31
2018-09-06T07:57:50.729Z,27.87
2018-09-06T07:58:50.932Z,28.36
2018-09-06T07:59:51.141Z,28.15
2018-09-06T08:00:51.345Z,29.12
2018-09-06T08:01:51.546Z,30.13
2018-09-06T08:02:51.743Z,30.22
2018-09-06T08:03:51.946Z,30.60
2018-09-06T08:04:52.921Z,30.79
2018-09-06T08:05:52.360Z,30.02
2018-09-06T08:06:52.576Z,30.45
2018-09-06T08:07:52.782Z,30.94
2018-09-06T08:08:52.987Z,30.42
2018-09-06T08:09:53.186Z,29.37
2018-09-06T08:10:53.393Z,29.52
2018-09-06T08:11:53.638Z,29.49
2018-09-06T08:12:53.797Z,30.10
2018-09-06T08:13:54.005Z,30.54
2018-09-06T08:14:54.210Z,30.57
2018-09-06T08:15:54.416Z,30.13
2018-09-06T08:16:54.615Z,29.87
2018-09-06T08:17:54.821Z,30.08
2018-09-06T08:18:55.032Z,30.02
2018-09-06T08:19:55.226Z,30.65
2018-09-06T08:20:55.430Z,30.60
2018-09-06T08:21:55.638Z,30.13
2018-09-06T08:22:55.837Z,29.65
2018-09-06T08:23:56.040Z,29.85
2018-09-06T08:24:56.244Z,30.24
2018-09-06T08:25:56.445Z,29.49
2018-09-06T08:26:56.653Z,29.98
2018-09-06T08:27:56.866Z,30.17
2018-09-06T08:28:57.066Z,30.37
2018-09-06T08:29:57.275Z,30.82
2018-09-06T08:30:57.561Z,31.25
2018-09-06T08:31:57.683Z,31.01
2018-09-06T08:32:57.885Z,29.33
2018-09-06T08:33:58.093Z,29.04
2018-09-06T08:34:58.297Z,29.43
2018-09-06T08:35:58.501Z,29.51
2018-09-06T08:36:58.796Z,30.15
2018-09-06T08:37:58.916Z,30.08
2018-09-06T08:38:59.118Z,29.90
2018-09-06T08:39:59.323Z,30.89
2018-09-06T08:40:59.531Z,31.62
2018-09-06T08:41:59.738Z,31.56
2018-09-06T08:42:59.940Z,29.02
2018-09-06T08:44:00.147Z,28.95
2018-09-06T08:45:00.345Z,29.57
2018-09-06T08:46:00.552Z,29.51
2018-09-06T08:47:00.754Z,29.61
2018-09-06T08:48:00.962Z,28.89
2018-09-06T08:49:01.166Z,28.76
2018-09-06T08:50:01.370Z,28.14
2018-09-06T08:51:01.571Z,28.92
2018-09-06T08:52:01.830Z,29.86
2018-09-06T08:53:01.980Z,29.76
2018-09-06T08:54:02.186Z,29.26
2018-09-06T08:55:02.401Z,27.17
2018-09-06T08:56:02.600Z,27.07
2018-09-06T08:57:02.806Z,26.72
2018-09-06T08:58:03.014Z,27.82
2018-09-06T08:59:03.224Z,28.95
2018-09-06T09:00:03.430Z,29.68
2018-09-06T09:01:03.636Z,30.49
2018-09-06T09:02:03.865Z,31.16
2018-09-06T09:03:04.100Z,31.16
2018-09-06T09:04:04.246Z,32.03
2018-09-06T09:05:04.448Z,32.00
2018-09-06T09:06:04.751Z,31.51
2018-09-06T09:07:04.859Z,31.63
2018-09-06T09:08:05.066Z,32.32
2018-09-06T09:09:05.267Z,29.65
2018-09-06T09:10:05.470Z,30.13
2018-09-06T09:11:05.782Z,30.39
2018-09-06T09:12:05.895Z,30.67
2018-09-06T09:13:06.123Z,31.43
2018-09-06T09:14:06.308Z,31.50
2018-09-06T09:15:06.522Z,31.39
2018-09-06T09:16:06.764Z,31.35
2018-09-06T09:17:06.938Z,31.46
2018-09-06T09:18:07.137Z,31.81
2018-09-06T09:19:07.416Z,32.04
2018-09-06T09:20:07.551Z,31.66
2018-09-06T09:21:07.756Z,31.38
2018-09-06T09:22:08.033Z,31.12
2018-09-06T09:23:08.162Z,30.67
2018-09-06T09:24:08.377Z,30.49
2018-09-06T09:25:08.566Z,30.69
2018-09-06T09:26:08.775Z,30.97
2018-09-06T09:27:08.973Z,31.10
2018-09-06T09:28:09.174Z,31.36
2018-09-06T09:29:09.380Z,31.43
2018-09-06T09:30:09.574Z,31.23
2018-09-06T09:31:09.777Z,31.06
2018-09-06T09:32:09.991Z,31.31
2018-09-06T09:33:10.195Z,31.34
2018-09-06T09:34:10.395Z,31.36
2018-09-06T09:35:10.599Z,30.98
2018-09-06T09:36:10.801Z,31.56
2018-09-06T09:37:11.003Z,31.85
2018-09-06T09:38:11.202Z,32.47
2018-09-06T09:39:11.413Z,33.06
2018-09-06T09:40:11.618Z,33.71
2018-09-06T09:41:11.821Z,33.81
2018-09-06T09:42:12.024Z,34.30
2018-09-06T09:43:12.288Z,33.39
2018-09-06T09:44:12.444Z,33.44
2018-09-06T09:45:12.697Z,33.86
2018-09-06T09:47:44.482Z,33.76
2018-09-06T09:48:44.686Z,33.28
2018-09-06T09:49:44.890Z,33.04
2018-09-06T09:51:06.115Z,33.61
2018-09-06T09:51:45.275Z,33.87
2018-09-06T09:52:45.473Z,32.59
2018-09-06T09:53:45.687Z,32.70
2018-09-06T09:54:45.901Z,32.97
2018-09-06T09:55:46.108Z,33.18
2018-09-06T09:56:46.313Z,32.50
2018-09-06T09:57:47.454Z,32.43
2018-09-06T09:58:46.719Z,32.48
2018-09-06T09:59:46.918Z,32.92
2018-09-06T10:00:47.129Z,32.52
2018-09-06T10:01:47.342Z,32.93
2018-09-06T10:02:47.543Z,33.15
2018-09-06T10:03:47.777Z,33.31
2018-09-06T10:04:47.945Z,33.28
2018-09-06T10:05:48.149Z,33.44
2018-09-06T10:06:48.354Z,33.73
2018-09-06T10:07:48.554Z,33.71
2018-09-06T10:08:48.767Z,33.14
2018-09-06T10:09:48.971Z,33.19
2018-09-06T10:10:49.173Z,33.81
2018-09-06T10:11:49.379Z,33.76
2018-09-06T10:12:49.585Z,33.60
2018-09-06T10:13:49.799Z,34.02
2018-09-06T10:14:50.002Z,34.08
2018-09-06T10:15:50.217Z,34.10
2018-09-06T10:16:50.415Z,33.18
2018-09-06T10:17:50.614Z,33.12
2018-09-06T10:18:50.877Z,32.69
2018-09-06T10:19:51.008Z,32.94
2018-09-06T10:20:51.965Z,32.87
2018-09-06T10:21:51.416Z,31.38
2018-09-06T10:22:51.620Z,31.75
2018-09-06T10:23:51.827Z,31.69
2018-09-06T10:24:52.018Z,31.43
2018-09-06T10:25:52.242Z,30.76
2018-09-06T10:26:52.461Z,30.20
2018-09-06T10:27:52.668Z,30.57
2018-09-06T10:28:52.872Z,30.89
2018-09-06T10:29:53.065Z,30.73
2018-09-06T10:30:53.268Z,30.27
2018-09-06T10:31:53.479Z,30.67
2018-09-06T10:32:53.662Z,30.60
2018-09-06T10:33:53.875Z,30.91
2018-09-06T10:34:54.086Z,31.10
2018-09-06T10:35:54.291Z,31.10
2018-09-06T10:36:54.492Z,30.98
2018-09-06T10:37:54.703Z,31.13
2018-09-06T10:38:54.910Z,31.38
2018-09-06T10:39:55.140Z,31.19
2018-09-06T10:40:55.301Z,31.47
2018-09-06T10:41:55.515Z,31.76
2018-09-06T10:42:55.710Z,31.58
2018-09-06T10:43:55.924Z,31.76
2018-09-06T10:44:56.125Z,32.01
2018-09-06T10:45:56.319Z,31.88
2018-09-06T10:46:56.520Z,32.04
2018-09-06T10:47:56.809Z,32.50
2018-09-06T10:48:56.950Z,32.55
2018-09-06T10:49:57.149Z,32.57
2018-09-06T10:50:57.350Z,33.21
2018-09-06T10:51:57.549Z,33.15
2018-09-06T10:52:57.761Z,33.14
2018-09-06T10:53:57.960Z,33.15
2018-09-06T10:54:58.156Z,33.22
2018-09-06T10:55:58.366Z,33.03
2018-09-06T10:56:58.568Z,32.77
2018-09-06T10:57:58.776Z,31.89
2018-09-06T10:58:58.971Z,31.19
2018-09-06T10:59:59.170Z,30.92
2018-09-06T11:00:59.383Z,30.94
2018-09-06T11:01:59.602Z,30.77
2018-09-06T11:02:59.801Z,30.45
2018-09-06T11:04:00.013Z,30.37
2018-09-06T11:05:00.217Z,30.46
2018-09-06T11:06:00.426Z,30.58
2018-09-06T11:07:00.628Z,30.49
2018-09-06T11:08:00.838Z,30.75
2018-09-06T11:09:01.037Z,30.75
2018-09-06T11:10:01.230Z,30.73
2018-09-06T11:11:01.431Z,30.79
2018-09-06T11:12:01.633Z,30.88
2018-09-06T11:13:01.837Z,30.97
2018-09-06T11:14:02.049Z,30.89
2018-09-06T11:15:02.262Z,31.04
2018-09-06T11:16:02.446Z,31.04
2018-09-06T11:17:02.656Z,30.73
2018-09-06T11:18:02.932Z,30.70
2018-09-06T11:19:03.056Z,30.84
2018-09-06T11:20:03.252Z,31.53
2018-09-06T11:21:03.495Z,31.51
2018-09-06T11:22:04.007Z,31.56
2018-09-06T11:23:03.878Z,31.72
2018-09-06T11:24:04.080Z,31.17
2018-09-06T11:25:04.281Z,30.65
2018-09-06T11:26:04.479Z,30.77
2018-09-06T11:27:04.674Z,30.75
2018-09-06T11:28:04.882Z,30.58
2018-09-06T11:29:05.079Z,30.45
2018-09-06T11:30:05.280Z,30.42
2018-09-06T11:31:05.482Z,30.55
2018-09-06T11:32:05.690Z,30.99
2018-09-06T11:33:05.881Z,30.75
2018-09-06T11:34:06.082Z,30.60
2018-09-06T11:35:06.287Z,29.90
2018-09-06T11:36:06.490Z,29.64
2018-09-06T11:37:06.690Z,29.58
2018-09-06T11:38:06.889Z,29.74
2018-09-06T11:39:07.088Z,29.74
2018-09-06T11:40:07.359Z,29.41
2018-09-06T11:41:07.493Z,29.14
2018-09-06T11:42:07.687Z,29.14
2018-09-06T11:43:07.880Z,29.30
2018-09-06T11:44:08.082Z,29.26
2018-09-06T11:45:08.285Z,29.19
2018-09-06T11:46:08.495Z,29.16
2018-09-06T11:47:08.712Z,29.11
2018-09-06T11:48:08.895Z,28.81
2018-09-06T11:49:09.091Z,28.68
2018-09-06T11:50:09.298Z,28.68
2018-09-06T11:51:09.502Z,28.62
2018-09-06T11:52:09.704Z,28.59
2018-09-06T11:53:09.906Z,28.68
2018-09-06T11:54:10.127Z,28.39
2018-09-06T11:55:10.997Z,28.07
2018-09-06T11:56:10.476Z,28.02
2018-09-06T11:57:10.678Z,28.07
2018-09-06T11:58:10.876Z,27.97
2018-09-06T11:59:11.082Z,27.90
2018-09-06T12:00:11.279Z,27.79
2018-09-06T12:01:11.476Z,27.72
2018-09-06T12:02:11.719Z,27.72
2018-09-06T12:03:11.870Z,27.60
2018-09-06T12:04:12.074Z,27.55
2018-09-06T12:05:12.269Z,27.50
2018-09-06T12:06:12.504Z,27.17
2018-09-06T12:07:12.664Z,27.28
2018-09-06T12:08:12.860Z,26.92
2018-09-06T12:09:13.065Z,26.97
2018-09-06T12:10:13.255Z,26.95
2018-09-06T12:11:13.451Z,26.70
2018-09-06T12:12:13.642Z,26.36
2018-09-06T12:13:13.835Z,25.90
2018-09-06T12:14:14.031Z,25.77
2018-09-06T12:15:14.233Z,25.47
2018-09-06T12:16:14.436Z,25.15
2018-09-06T12:17:14.632Z,24.90
2018-09-06T12:18:14.829Z,24.77
2018-09-06T12:19:15.026Z,24.52
2018-09-06T12:20:15.219Z,24.25
2018-09-06T12:21:15.438Z,23.91
2018-09-06T12:22:15.635Z,23.76
2018-09-06T12:23:15.834Z,23.63
2018-09-06T12:24:16.027Z,23.51
2018-09-06T12:25:16.257Z,23.28
2018-09-06T12:26:16.423Z,23.25
2018-09-06T12:27:17.508Z,23.23
2018-09-06T12:28:16.804Z,23.25
2018-09-06T12:29:17.000Z,22.98
2018-09-06T12:30:17.211Z,22.68
2018-09-06T12:31:17.417Z,22.83
2018-09-06T12:32:17.623Z,22.64
2018-09-06T12:33:17.910Z,22.27
2018-09-06T12:34:18.020Z,21.99
2018-09-06T12:35:18.207Z,22.15
2018-09-06T12:36:18.401Z,22.28
2018-09-06T12:37:18.599Z,22.35
2018-09-06T12:38:18.798Z,22.30
2018-09-06T12:39:19.000Z,22.40
2018-09-06T12:40:19.206Z,22.47
2018-09-06T12:41:19.803Z,22.21
2018-09-06T12:42:19.611Z,22.25
2018-09-06T12:43:19.819Z,22.21
2018-09-06T12:44:20.009Z,22.33
2018-09-06T12:45:20.218Z,22.36
2018-09-06T12:46:20.416Z,22.31
2018-09-06T12:47:20.617Z,22.42
2018-09-06T12:48:20.802Z,22.45
2018-09-06T12:49:20.998Z,22.47
2018-09-06T12:50:21.196Z,22.60
2018-09-06T12:51:21.390Z,22.60
2018-09-06T12:52:21.602Z,22.47
2018-09-06T12:53:21.840Z,22.60
2018-09-06T12:54:22.027Z,22.61
2018-09-06T12:55:22.234Z,22.64
2018-09-06T12:56:22.425Z,22.62